sensor_id;sensor_type;location;lat;lon;timestamp;P1;durP1;ratioP1;P2;durP2;ratioP2
9330;SDS011;4704;50.470;12.072;2022-08-19T00:00:40;9.13;;;8.52;;
9330;SDS011;4704;50.470;12.072;2022-08-19T00:03:07;8.65;;;8.05;;
9330;SDS011;4704;50.470;12.072;2022-08-19T00:05:35;8.43;;;7.93;;
9330;SDS011;4704;50.470;12.072;2022-08-19T00:08:03;9.18;;;8.48;;
9330;SDS011;4704;50.470;12.072;2022-08-19T00:10:30;8.70;;;8.10;;
9330;SDS011;4704;50.470;12.072;2022-08-19T00:12:59;8.45;;;7.88;;
9330;SDS011;4704;50.470;12.072;2022-08-19T00:15:26;9.02;;;8.43;;
9330;SDS011;4704;50.470;12.072;2022-08-19T00:17:55;8.50;;;7.95;;
9330;SDS011;4704;50.470;12.072;2022-08-19T00:20:22;8.65;;;8.05;;
9330;SDS011;4704;50.470;12.072;2022-08-19T00:22:49;8.38;;;7.88;;
9330;SDS011;4704;50.470;12.072;2022-08-19T00:25:17;9.27;;;8.68;;
9330;SDS011;4704;50.470;12.072;2022-08-19T00:27:44;8.90;;;8.30;;
9330;SDS011;4704;50.470;12.072;2022-08-19T00:30:12;8.98;;;8.38;;
9330;SDS011;4704;50.470;12.072;2022-08-19T00:32:40;8.32;;;7.72;;
9330;SDS011;4704;50.470;12.072;2022-08-19T00:35:09;8.40;;;7.80;;
9330;SDS011;4704;50.470;12.072;2022-08-19T00:37:36;8.68;;;8.07;;
9330;SDS011;4704;50.470;12.072;2022-08-19T00:40:06;8.30;;;7.80;;
9330;SDS011;4704;50.470;12.072;2022-08-19T00:42:34;7.65;;;7.15;;
9330;SDS011;4704;50.470;12.072;2022-08-19T00:45:02;8.05;;;7.55;;
9330;SDS011;4704;50.470;12.072;2022-08-19T00:47:35;8.40;;;7.80;;
9330;SDS011;4704;50.470;12.072;2022-08-19T00:50:03;8.60;;;7.90;;
9330;SDS011;4704;50.470;12.072;2022-08-19T00:52:33;8.18;;;7.63;;
9330;SDS011;4704;50.470;12.072;2022-08-19T00:55:03;8.00;;;7.50;;
9330;SDS011;4704;50.470;12.072;2022-08-19T00:57:32;8.57;;;7.90;;
9330;SDS011;4704;50.470;12.072;2022-08-19T01:00:04;8.30;;;7.70;;
9330;SDS011;4704;50.470;12.072;2022-08-19T01:02:33;7.80;;;7.30;;
9330;SDS011;4704;50.470;12.072;2022-08-19T01:05:01;7.80;;;7.20;;
9330;SDS011;4704;50.470;12.072;2022-08-19T01:07:29;8.20;;;7.60;;
9330;SDS011;4704;50.470;12.072;2022-08-19T01:09:58;8.38;;;7.78;;
9330;SDS011;4704;50.470;12.072;2022-08-19T01:12:26;8.13;;;7.53;;
9330;SDS011;4704;50.470;12.072;2022-08-19T01:14:54;7.70;;;7.20;;
9330;SDS011;4704;50.470;12.072;2022-08-19T01:17:22;8.05;;;7.55;;
9330;SDS011;4704;50.470;12.072;2022-08-19T01:19:49;7.80;;;7.30;;
9330;SDS011;4704;50.470;12.072;2022-08-19T01:22:19;7.60;;;7.10;;
9330;SDS011;4704;50.470;12.072;2022-08-19T01:24:50;7.90;;;7.40;;
9330;SDS011;4704;50.470;12.072;2022-08-19T01:27:18;8.02;;;7.35;;
9330;SDS011;4704;50.470;12.072;2022-08-19T01:29:46;7.97;;;7.47;;
9330;SDS011;4704;50.470;12.072;2022-08-19T01:32:14;7.13;;;6.72;;
9330;SDS011;4704;50.470;12.072;2022-08-19T01:34:41;7.72;;;7.22;;
9330;SDS011;4704;50.470;12.072;2022-08-19T01:37:12;7.30;;;6.80;;
9330;SDS011;4704;50.470;12.072;2022-08-19T01:39:40;7.85;;;7.35;;
9330;SDS011;4704;50.470;12.072;2022-08-19T01:42:09;7.75;;;7.25;;
9330;SDS011;4704;50.470;12.072;2022-08-19T01:44:37;6.97;;;6.47;;
9330;SDS011;4704;50.470;12.072;2022-08-19T01:47:05;7.43;;;6.93;;
9330;SDS011;4704;50.470;12.072;2022-08-19T01:49:34;7.60;;;7.10;;
9330;SDS011;4704;50.470;12.072;2022-08-19T01:52:01;7.20;;;6.70;;
9330;SDS011;4704;50.470;12.072;2022-08-19T01:54:29;7.40;;;6.90;;
9330;SDS011;4704;50.470;12.072;2022-08-19T01:56:58;7.20;;;6.70;;
9330;SDS011;4704;50.470;12.072;2022-08-19T01:59:28;7.28;;;6.78;;
9330;SDS011;4704;50.470;12.072;2022-08-19T02:01:55;7.20;;;6.70;;
9330;SDS011;4704;50.470;12.072;2022-08-19T02:04:22;7.57;;;7.07;;
9330;SDS011;4704;50.470;12.072;2022-08-19T02:06:50;7.30;;;6.80;;
9330;SDS011;4704;50.470;12.072;2022-08-19T02:09:18;7.00;;;6.50;;
9330;SDS011;4704;50.470;12.072;2022-08-19T02:11:45;7.25;;;6.85;;
9330;SDS011;4704;50.470;12.072;2022-08-19T02:14:12;7.28;;;6.78;;
9330;SDS011;4704;50.470;12.072;2022-08-19T02:16:41;7.10;;;6.60;;
9330;SDS011;4704;50.470;12.072;2022-08-19T02:19:08;6.93;;;6.43;;
9330;SDS011;4704;50.470;12.072;2022-08-19T02:21:36;7.30;;;6.80;;
9330;SDS011;4704;50.470;12.072;2022-08-19T02:24:03;7.45;;;6.95;;
9330;SDS011;4704;50.470;12.072;2022-08-19T02:26:31;7.68;;;7.07;;
9330;SDS011;4704;50.470;12.072;2022-08-19T02:28:58;7.00;;;6.60;;
9330;SDS011;4704;50.470;12.072;2022-08-19T02:31:27;7.60;;;7.10;;
9330;SDS011;4704;50.470;12.072;2022-08-19T02:33:56;6.75;;;6.25;;
9330;SDS011;4704;50.470;12.072;2022-08-19T02:36:24;7.30;;;6.80;;
9330;SDS011;4704;50.470;12.072;2022-08-19T02:38:52;7.25;;;6.75;;
9330;SDS011;4704;50.470;12.072;2022-08-19T02:41:19;7.57;;;7.07;;
9330;SDS011;4704;50.470;12.072;2022-08-19T02:43:46;7.65;;;7.15;;
9330;SDS011;4704;50.470;12.072;2022-08-19T02:46:14;7.53;;;7.03;;
9330;SDS011;4704;50.470;12.072;2022-08-19T02:48:46;6.80;;;6.40;;
9330;SDS011;4704;50.470;12.072;2022-08-19T02:51:17;7.38;;;6.88;;
9330;SDS011;4704;50.470;12.072;2022-08-19T02:53:44;7.13;;;6.63;;
9330;SDS011;4704;50.470;12.072;2022-08-19T02:56:12;7.55;;;7.05;;
9330;SDS011;4704;50.470;12.072;2022-08-19T02:58:40;7.30;;;6.80;;
9330;SDS011;4704;50.470;12.072;2022-08-19T03:01:08;6.95;;;6.53;;
9330;SDS011;4704;50.470;12.072;2022-08-19T03:03:36;7.68;;;7.18;;
9330;SDS011;4704;50.470;12.072;2022-08-19T03:06:07;7.32;;;6.82;;
9330;SDS011;4704;50.470;12.072;2022-08-19T03:08:37;7.15;;;6.68;;
9330;SDS011;4704;50.470;12.072;2022-08-19T03:11:04;7.65;;;7.15;;
9330;SDS011;4704;50.470;12.072;2022-08-19T03:13:31;7.53;;;7.03;;
9330;SDS011;4704;50.470;12.072;2022-08-19T03:15:59;7.30;;;6.80;;
9330;SDS011;4704;50.470;12.072;2022-08-19T03:18:26;6.97;;;6.47;;
9330;SDS011;4704;50.470;12.072;2022-08-19T03:20:53;7.03;;;6.60;;
9330;SDS011;4704;50.470;12.072;2022-08-19T03:23:21;7.40;;;6.90;;
9330;SDS011;4704;50.470;12.072;2022-08-19T03:25:50;7.15;;;6.65;;
9330;SDS011;4704;50.470;12.072;2022-08-19T03:28:18;6.90;;;6.50;;
9330;SDS011;4704;50.470;12.072;2022-08-19T03:30:55;6.90;;;6.50;;
9330;SDS011;4704;50.470;12.072;2022-08-19T03:33:24;7.28;;;6.78;;
9330;SDS011;4704;50.470;12.072;2022-08-19T03:36:03;7.10;;;6.60;;
9330;SDS011;4704;50.470;12.072;2022-08-19T03:38:30;7.40;;;6.90;;
9330;SDS011;4704;50.470;12.072;2022-08-19T03:41:03;7.53;;;7.03;;
9330;SDS011;4704;50.470;12.072;2022-08-19T03:43:32;7.20;;;6.70;;
9330;SDS011;4704;50.470;12.072;2022-08-19T03:46:00;7.50;;;7.00;;
9330;SDS011;4704;50.470;12.072;2022-08-19T03:48:29;7.32;;;6.82;;
9330;SDS011;4704;50.470;12.072;2022-08-19T03:50:57;6.82;;;6.32;;
9330;SDS011;4704;50.470;12.072;2022-08-19T03:53:25;7.35;;;6.85;;
9330;SDS011;4704;50.470;12.072;2022-08-19T03:55:53;7.57;;;7.07;;
9330;SDS011;4704;50.470;12.072;2022-08-19T03:58:22;7.80;;;7.20;;
9330;SDS011;4704;50.470;12.072;2022-08-19T04:00:49;7.25;;;6.75;;
9330;SDS011;4704;50.470;12.072;2022-08-19T04:03:17;7.47;;;6.97;;
9330;SDS011;4704;50.470;12.072;2022-08-19T04:05:45;7.70;;;7.20;;
9330;SDS011;4704;50.470;12.072;2022-08-19T04:08:15;7.40;;;6.90;;
9330;SDS011;4704;50.470;12.072;2022-08-19T04:10:44;7.18;;;6.68;;
9330;SDS011;4704;50.470;12.072;2022-08-19T04:13:12;7.50;;;7.00;;
9330;SDS011;4704;50.470;12.072;2022-08-19T04:15:41;7.45;;;6.95;;
9330;SDS011;4704;50.470;12.072;2022-08-19T04:18:08;7.10;;;6.60;;
9330;SDS011;4704;50.470;12.072;2022-08-19T04:20:42;7.25;;;6.85;;
9330;SDS011;4704;50.470;12.072;2022-08-19T04:23:10;7.40;;;6.90;;
9330;SDS011;4704;50.470;12.072;2022-08-19T04:25:38;7.88;;;7.38;;
9330;SDS011;4704;50.470;12.072;2022-08-19T04:28:06;7.53;;;7.03;;
9330;SDS011;4704;50.470;12.072;2022-08-19T04:30:38;7.53;;;7.03;;
9330;SDS011;4704;50.470;12.072;2022-08-19T04:33:07;7.50;;;7.00;;
9330;SDS011;4704;50.470;12.072;2022-08-19T04:35:36;7.40;;;6.90;;
9330;SDS011;4704;50.470;12.072;2022-08-19T04:38:04;7.75;;;7.25;;
9330;SDS011;4704;50.470;12.072;2022-08-19T04:40:32;7.55;;;7.05;;
9330;SDS011;4704;50.470;12.072;2022-08-19T04:43:16;7.22;;;6.72;;
9330;SDS011;4704;50.470;12.072;2022-08-19T04:45:44;7.40;;;6.90;;
9330;SDS011;4704;50.470;12.072;2022-08-19T04:48:13;7.60;;;7.10;;
9330;SDS011;4704;50.470;12.072;2022-08-19T04:50:43;7.35;;;6.85;;
9330;SDS011;4704;50.470;12.072;2022-08-19T04:53:10;7.57;;;7.07;;
9330;SDS011;4704;50.470;12.072;2022-08-19T04:55:38;7.25;;;6.75;;
9330;SDS011;4704;50.470;12.072;2022-08-19T04:58:05;7.32;;;6.80;;
9330;SDS011;4704;50.470;12.072;2022-08-19T05:00:33;7.47;;;6.97;;
9330;SDS011;4704;50.470;12.072;2022-08-19T05:03:00;7.38;;;6.88;;
9330;SDS011;4704;50.470;12.072;2022-08-19T05:05:29;7.45;;;6.95;;
9330;SDS011;4704;50.470;12.072;2022-08-19T05:07:57;6.95;;;6.45;;
9330;SDS011;4704;50.470;12.072;2022-08-19T05:10:24;7.32;;;6.82;;
9330;SDS011;4704;50.470;12.072;2022-08-19T05:12:52;7.22;;;6.72;;
9330;SDS011;4704;50.470;12.072;2022-08-19T05:15:19;7.65;;;7.15;;
9330;SDS011;4704;50.470;12.072;2022-08-19T05:17:47;7.43;;;6.93;;
9330;SDS011;4704;50.470;12.072;2022-08-19T05:20:29;7.00;;;6.60;;
9330;SDS011;4704;50.470;12.072;2022-08-19T05:23:14;7.10;;;6.60;;
9330;SDS011;4704;50.470;12.072;2022-08-19T05:25:42;7.15;;;6.65;;
9330;SDS011;4704;50.470;12.072;2022-08-19T05:28:09;7.10;;;6.60;;
9330;SDS011;4704;50.470;12.072;2022-08-19T05:30:36;7.00;;;6.60;;
9330;SDS011;4704;50.470;12.072;2022-08-19T05:33:06;7.07;;;6.57;;
9330;SDS011;4704;50.470;12.072;2022-08-19T05:35:37;6.60;;;6.20;;
9330;SDS011;4704;50.470;12.072;2022-08-19T05:38:05;7.00;;;6.50;;
9330;SDS011;4704;50.470;12.072;2022-08-19T05:40:33;6.80;;;6.40;;
9330;SDS011;4704;50.470;12.072;2022-08-19T05:43:01;6.40;;;5.90;;
9330;SDS011;4704;50.470;12.072;2022-08-19T05:45:28;6.63;;;6.20;;
9330;SDS011;4704;50.470;12.072;2022-08-19T05:47:56;6.38;;;5.97;;
9330;SDS011;4704;50.470;12.072;2022-08-19T05:50:23;7.00;;;6.50;;
9330;SDS011;4704;50.470;12.072;2022-08-19T05:52:52;6.38;;;5.97;;
9330;SDS011;4704;50.470;12.072;2022-08-19T05:55:20;6.53;;;6.13;;
9330;SDS011;4704;50.470;12.072;2022-08-19T05:57:47;6.80;;;6.40;;
9330;SDS011;4704;50.470;12.072;2022-08-19T06:00:15;6.80;;;6.40;;
9330;SDS011;4704;50.470;12.072;2022-08-19T06:02:42;6.43;;;6.03;;
9330;SDS011;4704;50.470;12.072;2022-08-19T06:05:10;6.78;;;6.38;;
9330;SDS011;4704;50.470;12.072;2022-08-19T06:07:38;6.90;;;6.40;;
9330;SDS011;4704;50.470;12.072;2022-08-19T06:10:09;6.80;;;6.40;;
9330;SDS011;4704;50.470;12.072;2022-08-19T06:12:36;6.70;;;6.30;;
9330;SDS011;4704;50.470;12.072;2022-08-19T06:15:05;6.53;;;6.13;;
9330;SDS011;4704;50.470;12.072;2022-08-19T06:17:33;6.82;;;6.43;;
9330;SDS011;4704;50.470;12.072;2022-08-19T06:20:00;7.18;;;6.68;;
9330;SDS011;4704;50.470;12.072;2022-08-19T06:22:29;6.50;;;6.10;;
9330;SDS011;4704;50.470;12.072;2022-08-19T06:24:57;7.05;;;6.55;;
9330;SDS011;4704;50.470;12.072;2022-08-19T06:27:26;7.07;;;6.57;;
9330;SDS011;4704;50.470;12.072;2022-08-19T06:29:54;6.60;;;6.20;;
9330;SDS011;4704;50.470;12.072;2022-08-19T06:32:21;6.75;;;6.32;;
9330;SDS011;4704;50.470;12.072;2022-08-19T06:34:49;6.47;;;6.07;;
9330;SDS011;4704;50.470;12.072;2022-08-19T06:37:16;6.40;;;6.00;;
9330;SDS011;4704;50.470;12.072;2022-08-19T06:39:44;6.93;;;6.43;;
9330;SDS011;4704;50.470;12.072;2022-08-19T06:42:12;6.50;;;6.10;;
9330;SDS011;4704;50.470;12.072;2022-08-19T06:44:43;6.90;;;6.40;;
9330;SDS011;4704;50.470;12.072;2022-08-19T06:47:13;7.20;;;6.70;;
9330;SDS011;4704;50.470;12.072;2022-08-19T06:49:41;6.53;;;6.13;;
9330;SDS011;4704;50.470;12.072;2022-08-19T06:52:08;6.90;;;6.40;;
9330;SDS011;4704;50.470;12.072;2022-08-19T06:54:37;6.40;;;6.00;;
9330;SDS011;4704;50.470;12.072;2022-08-19T06:57:05;7.05;;;6.55;;
9330;SDS011;4704;50.470;12.072;2022-08-19T06:59:34;7.25;;;6.75;;
9330;SDS011;4704;50.470;12.072;2022-08-19T07:02:03;6.75;;;6.25;;
9330;SDS011;4704;50.470;12.072;2022-08-19T07:04:32;7.05;;;6.55;;
9330;SDS011;4704;50.470;12.072;2022-08-19T07:07:00;6.93;;;6.43;;
9330;SDS011;4704;50.470;12.072;2022-08-19T07:09:28;6.93;;;6.43;;
9330;SDS011;4704;50.470;12.072;2022-08-19T07:11:56;7.07;;;6.57;;
9330;SDS011;4704;50.470;12.072;2022-08-19T07:14:24;6.93;;;6.53;;
9330;SDS011;4704;50.470;12.072;2022-08-19T07:16:52;6.78;;;6.38;;
9330;SDS011;4704;50.470;12.072;2022-08-19T07:19:23;7.18;;;6.68;;
9330;SDS011;4704;50.470;12.072;2022-08-19T07:21:51;6.40;;;6.00;;
9330;SDS011;4704;50.470;12.072;2022-08-19T07:24:19;6.38;;;5.97;;
9330;SDS011;4704;50.470;12.072;2022-08-19T07:26:48;6.53;;;6.13;;
9330;SDS011;4704;50.470;12.072;2022-08-19T07:29:15;7.13;;;6.63;;
9330;SDS011;4704;50.470;12.072;2022-08-19T07:31:43;6.85;;;6.35;;
9330;SDS011;4704;50.470;12.072;2022-08-19T07:34:11;6.65;;;6.25;;
9330;SDS011;4704;50.470;12.072;2022-08-19T07:36:41;6.43;;;6.03;;
9330;SDS011;4704;50.470;12.072;2022-08-19T07:39:10;6.38;;;5.97;;
9330;SDS011;4704;50.470;12.072;2022-08-19T07:41:37;6.18;;;5.78;;
9330;SDS011;4704;50.470;12.072;2022-08-19T07:44:05;6.53;;;6.13;;
9330;SDS011;4704;50.470;12.072;2022-08-19T07:46:33;6.68;;;6.28;;
9330;SDS011;4704;50.470;12.072;2022-08-19T07:49:02;6.32;;;5.93;;
9330;SDS011;4704;50.470;12.072;2022-08-19T07:51:30;6.70;;;6.30;;
9330;SDS011;4704;50.470;12.072;2022-08-19T07:53:59;6.72;;;6.22;;
9330;SDS011;4704;50.470;12.072;2022-08-19T07:56:26;6.28;;;5.80;;
9330;SDS011;4704;50.470;12.072;2022-08-19T07:58:54;6.28;;;5.88;;
9330;SDS011;4704;50.470;12.072;2022-08-19T08:01:22;6.40;;;6.00;;
9330;SDS011;4704;50.470;12.072;2022-08-19T08:03:50;6.43;;;6.03;;
9330;SDS011;4704;50.470;12.072;2022-08-19T08:06:36;6.40;;;6.00;;
9330;SDS011;4704;50.470;12.072;2022-08-19T08:09:23;6.50;;;6.03;;
9330;SDS011;4704;50.470;12.072;2022-08-19T08:11:52;6.38;;;5.97;;
9330;SDS011;4704;50.470;12.072;2022-08-19T08:14:20;6.60;;;6.20;;
9330;SDS011;4704;50.470;12.072;2022-08-19T08:16:48;6.95;;;6.45;;
9330;SDS011;4704;50.470;12.072;2022-08-19T08:19:17;6.82;;;6.32;;
9330;SDS011;4704;50.470;12.072;2022-08-19T08:21:45;6.82;;;6.40;;
9330;SDS011;4704;50.470;12.072;2022-08-19T08:24:12;6.50;;;6.10;;
9330;SDS011;4704;50.470;12.072;2022-08-19T08:26:42;6.70;;;6.20;;
9330;SDS011;4704;50.470;12.072;2022-08-19T08:29:10;6.20;;;5.70;;
9330;SDS011;4704;50.470;12.072;2022-08-19T08:31:37;6.70;;;6.20;;
9330;SDS011;4704;50.470;12.072;2022-08-19T08:34:05;6.45;;;5.97;;
9330;SDS011;4704;50.470;12.072;2022-08-19T08:36:32;6.45;;;6.05;;
9330;SDS011;4704;50.470;12.072;2022-08-19T08:39:03;6.60;;;6.13;;
9330;SDS011;4704;50.470;12.072;2022-08-19T08:41:31;6.55;;;6.15;;
9330;SDS011;4704;50.470;12.072;2022-08-19T08:44:03;6.63;;;6.22;;
9330;SDS011;4704;50.470;12.072;2022-08-19T08:46:34;6.90;;;6.40;;
9330;SDS011;4704;50.470;12.072;2022-08-19T08:49:04;6.22;;;5.82;;
9330;SDS011;4704;50.470;12.072;2022-08-19T08:51:36;6.90;;;6.40;;
9330;SDS011;4704;50.470;12.072;2022-08-19T08:54:05;6.60;;;6.10;;
9330;SDS011;4704;50.470;12.072;2022-08-19T08:56:33;7.18;;;6.57;;
9330;SDS011;4704;50.470;12.072;2022-08-19T08:59:01;6.82;;;6.32;;
9330;SDS011;4704;50.470;12.072;2022-08-19T09:01:33;6.60;;;6.15;;
9330;SDS011;4704;50.470;12.072;2022-08-19T09:04:02;7.13;;;6.63;;
9330;SDS011;4704;50.470;12.072;2022-08-19T09:06:32;7.15;;;6.65;;
9330;SDS011;4704;50.470;12.072;2022-08-19T09:09:02;7.07;;;6.57;;
9330;SDS011;4704;50.470;12.072;2022-08-19T09:11:36;7.03;;;6.53;;
9330;SDS011;4704;50.470;12.072;2022-08-19T09:14:08;7.85;;;7.25;;
9330;SDS011;4704;50.470;12.072;2022-08-19T09:16:40;7.40;;;6.90;;
9330;SDS011;4704;50.470;12.072;2022-08-19T09:19:08;7.80;;;7.20;;
9330;SDS011;4704;50.470;12.072;2022-08-19T09:21:37;7.78;;;7.00;;
9330;SDS011;4704;50.470;12.072;2022-08-19T09:24:05;7.60;;;7.00;;
9330;SDS011;4704;50.470;12.072;2022-08-19T09:26:33;7.68;;;7.18;;
9330;SDS011;4704;50.470;12.072;2022-08-19T09:29:00;8.13;;;7.55;;
9330;SDS011;4704;50.470;12.072;2022-08-19T09:31:30;7.95;;;7.45;;
9330;SDS011;4704;50.470;12.072;2022-08-19T09:33:59;7.55;;;6.97;;
9330;SDS011;4704;50.470;12.072;2022-08-19T09:36:29;7.97;;;7.38;;
9330;SDS011;4704;50.470;12.072;2022-08-19T09:39:01;8.15;;;7.55;;
9330;SDS011;4704;50.470;12.072;2022-08-19T09:41:28;7.32;;;6.82;;
9330;SDS011;4704;50.470;12.072;2022-08-19T09:43:56;8.43;;;7.82;;
9330;SDS011;4704;50.470;12.072;2022-08-19T09:46:25;8.38;;;7.68;;
9330;SDS011;4704;50.470;12.072;2022-08-19T09:48:53;8.15;;;7.55;;
9330;SDS011;4704;50.470;12.072;2022-08-19T09:51:24;8.30;;;7.55;;
9330;SDS011;4704;50.470;12.072;2022-08-19T09:53:54;8.40;;;7.80;;
9330;SDS011;4704;50.470;12.072;2022-08-19T09:56:22;8.40;;;7.70;;
9330;SDS011;4704;50.470;12.072;2022-08-19T09:58:49;9.02;;;8.15;;
9330;SDS011;4704;50.470;12.072;2022-08-19T10:01:17;8.75;;;8.05;;
9330;SDS011;4704;50.470;12.072;2022-08-19T10:03:47;8.40;;;7.63;;
9330;SDS011;4704;50.470;12.072;2022-08-19T10:06:15;8.85;;;8.15;;
9330;SDS011;4704;50.470;12.072;2022-08-19T10:08:44;8.98;;;8.27;;
9330;SDS011;4704;50.470;12.072;2022-08-19T10:11:12;8.30;;;7.70;;
9330;SDS011;4704;50.470;12.072;2022-08-19T10:13:41;8.48;;;7.78;;
9330;SDS011;4704;50.470;12.072;2022-08-19T10:16:09;8.57;;;7.97;;
9330;SDS011;4704;50.470;12.072;2022-08-19T10:18:37;9.35;;;8.55;;
9330;SDS011;4704;50.470;12.072;2022-08-19T10:21:09;8.18;;;7.57;;
9330;SDS011;4704;50.470;12.072;2022-08-19T10:23:36;8.10;;;7.40;;
9330;SDS011;4704;50.470;12.072;2022-08-19T10:26:06;7.93;;;7.32;;
9330;SDS011;4704;50.470;12.072;2022-08-19T10:28:34;8.00;;;7.40;;
9330;SDS011;4704;50.470;12.072;2022-08-19T10:31:05;8.00;;;7.30;;
9330;SDS011;4704;50.470;12.072;2022-08-19T10:33:33;7.68;;;7.07;;
9330;SDS011;4704;50.470;12.072;2022-08-19T10:36:01;7.70;;;7.10;;
9330;SDS011;4704;50.470;12.072;2022-08-19T10:38:29;7.82;;;7.25;;
9330;SDS011;4704;50.470;12.072;2022-08-19T10:41:07;7.80;;;7.30;;
9330;SDS011;4704;50.470;12.072;2022-08-19T10:43:35;7.78;;;7.18;;
9330;SDS011;4704;50.470;12.072;2022-08-19T10:46:04;7.88;;;7.35;;
9330;SDS011;4704;50.470;12.072;2022-08-19T10:48:32;8.52;;;7.78;;
9330;SDS011;4704;50.470;12.072;2022-08-19T10:51:00;7.75;;;7.15;;
9330;SDS011;4704;50.470;12.072;2022-08-19T10:53:44;7.88;;;7.18;;
9330;SDS011;4704;50.470;12.072;2022-08-19T10:56:13;8.57;;;7.88;;
9330;SDS011;4704;50.470;12.072;2022-08-19T10:58:58;8.20;;;7.60;;
9330;SDS011;4704;50.470;12.072;2022-08-19T11:01:28;7.50;;;6.93;;
9330;SDS011;4704;50.470;12.072;2022-08-19T11:03:56;8.00;;;7.40;;
9330;SDS011;4704;50.470;12.072;2022-08-19T11:06:24;7.45;;;6.95;;
9330;SDS011;4704;50.470;12.072;2022-08-19T11:08:51;7.82;;;7.22;;
9330;SDS011;4704;50.470;12.072;2022-08-19T11:11:21;7.68;;;7.07;;
9330;SDS011;4704;50.470;12.072;2022-08-19T11:13:49;7.78;;;7.18;;
9330;SDS011;4704;50.470;12.072;2022-08-19T11:16:18;7.93;;;7.32;;
9330;SDS011;4704;50.470;12.072;2022-08-19T11:18:47;7.60;;;7.10;;
9330;SDS011;4704;50.470;12.072;2022-08-19T11:21:16;7.53;;;7.03;;
9330;SDS011;4704;50.470;12.072;2022-08-19T11:23:44;7.40;;;6.90;;
9330;SDS011;4704;50.470;12.072;2022-08-19T11:26:12;7.90;;;7.30;;
9330;SDS011;4704;50.470;12.072;2022-08-19T11:28:42;7.35;;;6.82;;
9330;SDS011;4704;50.470;12.072;2022-08-19T11:31:10;7.15;;;6.65;;
9330;SDS011;4704;50.470;12.072;2022-08-19T11:33:38;7.90;;;7.30;;
9330;SDS011;4704;50.470;12.072;2022-08-19T11:36:05;7.20;;;6.70;;
9330;SDS011;4704;50.470;12.072;2022-08-19T11:38:33;7.35;;;6.85;;
9330;SDS011;4704;50.470;12.072;2022-08-19T11:41:01;7.38;;;6.88;;
9330;SDS011;4704;50.470;12.072;2022-08-19T11:43:28;6.38;;;5.93;;
9330;SDS011;4704;50.470;12.072;2022-08-19T11:45:57;7.35;;;6.85;;
9330;SDS011;4704;50.470;12.072;2022-08-19T11:48:25;7.15;;;6.65;;
9330;SDS011;4704;50.470;12.072;2022-08-19T11:50:53;7.05;;;6.47;;
9330;SDS011;4704;50.470;12.072;2022-08-19T11:53:21;7.18;;;6.68;;
9330;SDS011;4704;50.470;12.072;2022-08-19T11:55:49;6.28;;;5.82;;
9330;SDS011;4704;50.470;12.072;2022-08-19T11:58:17;6.93;;;6.43;;
9330;SDS011;4704;50.470;12.072;2022-08-19T12:00:45;6.80;;;6.30;;
9330;SDS011;4704;50.470;12.072;2022-08-19T12:03:13;6.88;;;6.38;;
9330;SDS011;4704;50.470;12.072;2022-08-19T12:05:41;6.82;;;6.32;;
9330;SDS011;4704;50.470;12.072;2022-08-19T12:08:08;6.60;;;6.13;;
9330;SDS011;4704;50.470;12.072;2022-08-19T12:10:37;6.88;;;6.38;;
9330;SDS011;4704;50.470;12.072;2022-08-19T12:13:06;6.47;;;6.07;;
9330;SDS011;4704;50.470;12.072;2022-08-19T12:15:34;6.47;;;6.00;;
9330;SDS011;4704;50.470;12.072;2022-08-19T12:18:02;6.65;;;6.20;;
9330;SDS011;4704;50.470;12.072;2022-08-19T12:20:32;6.47;;;5.97;;
9330;SDS011;4704;50.470;12.072;2022-08-19T12:23:00;6.05;;;5.65;;
9330;SDS011;4704;50.470;12.072;2022-08-19T12:25:28;5.90;;;5.50;;
9330;SDS011;4704;50.470;12.072;2022-08-19T12:27:56;5.90;;;5.50;;
9330;SDS011;4704;50.470;12.072;2022-08-19T12:30:23;6.22;;;5.82;;
9330;SDS011;4704;50.470;12.072;2022-08-19T12:32:51;6.32;;;5.93;;
9330;SDS011;4704;50.470;12.072;2022-08-19T12:35:18;5.82;;;5.43;;
9330;SDS011;4704;50.470;12.072;2022-08-19T12:37:47;5.47;;;5.10;;
9330;SDS011;4704;50.470;12.072;2022-08-19T12:40:15;5.70;;;5.30;;
9330;SDS011;4704;50.470;12.072;2022-08-19T12:42:44;5.65;;;5.25;;
9330;SDS011;4704;50.470;12.072;2022-08-19T12:45:12;5.03;;;4.72;;
9330;SDS011;4704;50.470;12.072;2022-08-19T12:47:40;5.72;;;5.32;;
9330;SDS011;4704;50.470;12.072;2022-08-19T12:50:08;5.60;;;5.20;;
9330;SDS011;4704;50.470;12.072;2022-08-19T12:52:36;5.55;;;5.15;;
9330;SDS011;4704;50.470;12.072;2022-08-19T12:55:06;5.25;;;4.95;;
9330;SDS011;4704;50.470;12.072;2022-08-19T12:57:33;5.45;;;5.05;;
9330;SDS011;4704;50.470;12.072;2022-08-19T13:00:03;5.20;;;4.90;;
9330;SDS011;4704;50.470;12.072;2022-08-19T13:02:33;5.95;;;5.55;;
9330;SDS011;4704;50.470;12.072;2022-08-19T13:05:01;5.45;;;5.05;;
9330;SDS011;4704;50.470;12.072;2022-08-19T13:07:28;5.30;;;5.00;;
9330;SDS011;4704;50.470;12.072;2022-08-19T13:09:56;5.20;;;4.90;;
9330;SDS011;4704;50.470;12.072;2022-08-19T13:12:25;4.65;;;4.35;;
9330;SDS011;4704;50.470;12.072;2022-08-19T13:14:52;5.30;;;5.00;;
9330;SDS011;4704;50.470;12.072;2022-08-19T13:17:20;4.68;;;4.38;;
9330;SDS011;4704;50.470;12.072;2022-08-19T13:19:48;5.22;;;4.93;;
9330;SDS011;4704;50.470;12.072;2022-08-19T13:22:16;5.10;;;4.70;;
9330;SDS011;4704;50.470;12.072;2022-08-19T13:24:43;5.25;;;4.90;;
9330;SDS011;4704;50.470;12.072;2022-08-19T13:27:11;5.18;;;4.88;;
9330;SDS011;4704;50.470;12.072;2022-08-19T13:29:40;4.70;;;4.40;;
9330;SDS011;4704;50.470;12.072;2022-08-19T13:32:25;4.82;;;4.50;;
9330;SDS011;4704;50.470;12.072;2022-08-19T13:35:10;4.70;;;4.40;;
9330;SDS011;4704;50.470;12.072;2022-08-19T13:37:38;4.75;;;4.45;;
9330;SDS011;4704;50.470;12.072;2022-08-19T13:40:09;4.78;;;4.47;;
9330;SDS011;4704;50.470;12.072;2022-08-19T13:42:37;4.88;;;4.57;;
9330;SDS011;4704;50.470;12.072;2022-08-19T13:45:07;4.95;;;4.65;;
9330;SDS011;4704;50.470;12.072;2022-08-19T13:47:35;5.18;;;4.88;;
9330;SDS011;4704;50.470;12.072;2022-08-19T13:50:08;4.47;;;4.18;;
9330;SDS011;4704;50.470;12.072;2022-08-19T13:52:36;4.80;;;4.50;;
9330;SDS011;4704;50.470;12.072;2022-08-19T13:55:04;4.88;;;4.57;;
9330;SDS011;4704;50.470;12.072;2022-08-19T13:57:31;4.97;;;4.68;;
9330;SDS011;4704;50.470;12.072;2022-08-19T13:59:59;4.40;;;4.10;;
9330;SDS011;4704;50.470;12.072;2022-08-19T14:02:28;5.10;;;4.80;;
9330;SDS011;4704;50.470;12.072;2022-08-19T14:04:55;4.68;;;4.38;;
9330;SDS011;4704;50.470;12.072;2022-08-19T14:07:23;4.50;;;4.20;;
9330;SDS011;4704;50.470;12.072;2022-08-19T14:09:50;4.47;;;4.18;;
9330;SDS011;4704;50.470;12.072;2022-08-19T14:12:18;4.60;;;4.30;;
9330;SDS011;4704;50.470;12.072;2022-08-19T14:14:46;4.50;;;4.20;;
9330;SDS011;4704;50.470;12.072;2022-08-19T14:17:13;4.60;;;4.30;;
9330;SDS011;4704;50.470;12.072;2022-08-19T14:19:42;4.20;;;4.00;;
9330;SDS011;4704;50.470;12.072;2022-08-19T14:22:09;4.35;;;4.15;;
9330;SDS011;4704;50.470;12.072;2022-08-19T14:24:36;4.78;;;4.47;;
9330;SDS011;4704;50.470;12.072;2022-08-19T14:27:04;4.53;;;4.22;;
9330;SDS011;4704;50.470;12.072;2022-08-19T14:29:32;4.50;;;4.20;;
9330;SDS011;4704;50.470;12.072;2022-08-19T14:31:59;4.72;;;4.43;;
9330;SDS011;4704;50.470;12.072;2022-08-19T14:34:27;4.82;;;4.53;;
9330;SDS011;4704;50.470;12.072;2022-08-19T14:36:57;4.70;;;4.40;;
9330;SDS011;4704;50.470;12.072;2022-08-19T14:39:25;4.68;;;4.38;;
9330;SDS011;4704;50.470;12.072;2022-08-19T14:41:52;4.60;;;4.30;;
9330;SDS011;4704;50.470;12.072;2022-08-19T14:44:20;4.40;;;4.10;;
9330;SDS011;4704;50.470;12.072;2022-08-19T14:46:47;4.50;;;4.20;;
9330;SDS011;4704;50.470;12.072;2022-08-19T14:49:15;4.72;;;4.40;;
9330;SDS011;4704;50.470;12.072;2022-08-19T14:51:43;4.75;;;4.45;;
9330;SDS011;4704;50.470;12.072;2022-08-19T14:54:13;4.15;;;3.95;;
9330;SDS011;4704;50.470;12.072;2022-08-19T14:56:40;4.45;;;4.15;;
9330;SDS011;4704;50.470;12.072;2022-08-19T14:59:08;5.10;;;4.70;;
9330;SDS011;4704;50.470;12.072;2022-08-19T15:01:35;4.47;;;4.18;;
9330;SDS011;4704;50.470;12.072;2022-08-19T15:04:03;4.40;;;4.10;;
9330;SDS011;4704;50.470;12.072;2022-08-19T15:06:30;4.55;;;4.25;;
9330;SDS011;4704;50.470;12.072;2022-08-19T15:08:57;4.22;;;3.92;;